createdAt,value
2022-11-01T00:02:03.612Z,4.57
2022-11-01T00:04:32.327Z,4.40
2022-11-01T00:07:00.602Z,5.10
2022-11-01T00:09:28.737Z,5.00
2022-11-01T00:11:56.796Z,4.43
2022-11-01T00:14:24.959Z,4.25
2022-11-01T00:16:53.135Z,4.53
2022-11-01T00:19:22.754Z,4.85
2022-11-01T00:21:50.896Z,4.65
2022-11-01T00:24:18.986Z,5.07
2022-11-01T00:29:20.263Z,4.82
2022-11-01T00:31:48.382Z,4.72
2022-11-01T00:34:17.159Z,4.70
2022-11-01T00:36:46.638Z,4.45
2022-11-01T00:39:15.816Z,4.53
2022-11-01T00:41:43.903Z,4.43
2022-11-01T00:44:12.216Z,4.47
2022-11-01T00:46:40.336Z,4.40
2022-11-01T00:49:08.558Z,4.40
2022-11-01T00:51:36.619Z,4.55
2022-11-01T00:54:06.256Z,4.05
2022-11-01T00:56:34.322Z,4.15
2022-11-01T00:59:02.562Z,4.53
2022-11-01T01:01:32.389Z,4.32
2022-11-01T01:06:28.764Z,4.47
2022-11-01T01:09:00.454Z,4.57
2022-11-01T01:11:30.188Z,4.10
2022-11-01T01:13:58.362Z,4.70
2022-11-01T01:16:26.499Z,4.05
2022-11-01T01:18:54.570Z,4.07
2022-11-01T01:21:22.695Z,4.30
2022-11-01T01:23:51.506Z,4.05
2022-11-01T01:26:19.714Z,4.07
2022-11-01T01:28:49.236Z,4.03
2022-11-01T01:31:17.429Z,4.43
2022-11-01T01:33:45.492Z,4.43
2022-11-01T01:36:13.625Z,4.47
2022-11-01T01:38:41.727Z,3.88
2022-11-01T01:41:27.478Z,4.20
2022-11-01T01:43:57.067Z,3.97
2022-11-01T01:46:25.667Z,3.70
2022-11-01T01:48:58.923Z,4.15
2022-11-01T01:51:29.497Z,4.07
2022-11-01T01:53:59.524Z,3.78
2022-11-01T01:59:04.138Z,3.95
2022-11-01T02:01:33.792Z,3.72
2022-11-01T02:04:02.323Z,4.13
2022-11-01T02:06:30.456Z,3.80
2022-11-01T02:09:02.534Z,3.92
2022-11-01T02:11:30.746Z,4.05
2022-11-01T02:14:00.489Z,4.15
2022-11-01T02:16:48.158Z,3.50
2022-11-01T02:19:49.594Z,3.70
2022-11-01T02:22:23.102Z,3.95
2022-11-01T02:25:11.117Z,3.63
2022-11-01T02:28:02.157Z,3.70
2022-11-01T02:30:41.566Z,3.85
2022-11-01T02:33:22.457Z,3.72
2022-11-01T02:35:59.301Z,3.95
2022-11-01T02:38:30.605Z,3.72
2022-11-01T02:41:07.528Z,3.78
2022-11-01T02:43:41.111Z,4.05
2022-11-01T02:46:24.415Z,3.85
2022-11-01T02:48:56.109Z,3.50
2022-11-01T02:51:26.265Z,3.53
2022-11-01T02:53:54.342Z,3.67
2022-11-01T02:56:23.456Z,3.75
2022-11-01T02:58:53.804Z,3.40
2022-11-01T03:01:27.948Z,3.58
2022-11-01T03:04:00.032Z,3.33
2022-11-01T03:06:34.503Z,3.50
2022-11-01T03:09:05.422Z,3.72
2022-11-01T03:11:41.773Z,3.20
2022-11-01T03:14:19.203Z,3.55
2022-11-01T03:16:54.351Z,3.63
2022-11-01T03:19:36.019Z,3.63
2022-11-01T03:22:10.043Z,3.03
2022-11-01T03:24:46.214Z,3.70
2022-11-01T03:27:21.496Z,3.28
2022-11-01T03:29:57.063Z,3.45
2022-11-01T03:32:29.519Z,3.33
2022-11-01T03:35:02.487Z,3.65
2022-11-01T03:37:33.332Z,3.55
2022-11-01T03:40:05.560Z,3.60
2022-11-01T03:42:34.769Z,3.15
2022-11-01T03:45:08.229Z,3.07
2022-11-01T03:47:37.496Z,3.55
2022-11-01T03:50:18.834Z,3.10
2022-11-01T03:52:48.137Z,3.40
2022-11-01T03:55:21.123Z,3.35
2022-11-01T03:57:50.565Z,3.10
2022-11-01T04:00:21.443Z,3.05
2022-11-01T04:02:49.606Z,3.00
2022-11-01T04:05:20.042Z,3.20
2022-11-01T04:07:48.252Z,3.13
2022-11-01T04:10:16.922Z,3.22
2022-11-01T04:12:46.926Z,3.08
2022-11-01T04:18:23.859Z,3.00
2022-11-01T04:20:54.464Z,3.10
2022-11-01T04:23:22.651Z,2.97
2022-11-01T04:25:50.792Z,2.85
2022-11-01T04:28:19.072Z,3.10
2022-11-01T04:30:47.255Z,3.20
2022-11-01T04:33:15.582Z,2.58
2022-11-01T04:35:43.776Z,2.85
2022-11-01T04:38:14.148Z,3.13
2022-11-01T04:40:43.148Z,3.00
2022-11-01T04:43:12.287Z,3.08
2022-11-01T04:45:41.086Z,2.97
2022-11-01T04:48:12.691Z,2.90
2022-11-01T04:50:41.623Z,2.58
2022-11-01T04:53:10.290Z,2.50
2022-11-01T04:55:39.742Z,3.10
2022-11-01T04:58:09.868Z,2.60
2022-11-01T05:00:38.650Z,2.70
2022-11-01T05:03:08.767Z,2.55
2022-11-01T05:08:06.789Z,3.20
2022-11-01T05:13:05.818Z,3.00
2022-11-01T05:15:36.885Z,2.92
2022-11-01T05:18:08.075Z,2.75
2022-11-01T05:20:36.204Z,2.92
2022-11-01T05:23:06.403Z,2.78
2022-11-01T05:25:38.001Z,2.60
2022-11-01T05:28:09.906Z,2.95
2022-11-01T05:30:38.916Z,2.55
2022-11-01T05:33:08.305Z,2.47
2022-11-01T05:35:37.134Z,2.92
2022-11-01T05:38:06.076Z,2.50
2022-11-01T05:40:34.773Z,2.53
2022-11-01T05:45:34.045Z,2.45
2022-11-01T05:48:05.790Z,2.20
2022-11-01T05:50:34.002Z,2.38
2022-11-01T05:53:08.818Z,2.55
2022-11-01T05:55:37.538Z,2.20
2022-11-01T05:58:06.022Z,2.72
2022-11-01T06:00:36.075Z,2.67
2022-11-01T06:03:05.435Z,2.85
2022-11-01T06:05:34.451Z,2.67
2022-11-01T06:08:04.181Z,2.28
2022-11-01T06:10:32.682Z,2.10
2022-11-01T06:13:01.237Z,2.80
2022-11-01T06:15:30.626Z,3.05
2022-11-01T06:18:02.064Z,2.60
2022-11-01T06:20:31.493Z,3.22
2022-11-01T06:23:00.466Z,2.63
2022-11-01T06:25:29.299Z,3.22
2022-11-01T06:27:57.746Z,2.85
2022-11-01T06:30:25.885Z,2.80
2022-11-01T06:32:54.075Z,2.92
2022-11-01T06:35:23.523Z,2.90
2022-11-01T06:37:51.775Z,2.92
2022-11-01T06:40:19.886Z,2.92
2022-11-01T06:42:47.982Z,2.47
2022-11-01T06:45:16.249Z,2.55
2022-11-01T06:47:48.186Z,3.00
2022-11-01T06:50:17.453Z,2.70
2022-11-01T06:52:46.959Z,2.67
2022-11-01T06:55:15.208Z,2.35
2022-11-01T06:57:43.453Z,3.30
2022-11-01T07:00:12.813Z,2.90
2022-11-01T07:02:40.933Z,2.70
2022-11-01T07:05:09.517Z,2.80
2022-11-01T07:07:37.606Z,2.95
2022-11-01T07:10:08.634Z,3.08
2022-11-01T07:12:36.735Z,2.47
2022-11-01T07:15:05.744Z,3.00
2022-11-01T07:17:33.815Z,2.60
2022-11-01T07:20:01.911Z,2.50
2022-11-01T07:22:30.104Z,2.60
2022-11-01T07:24:58.254Z,2.50
2022-11-01T07:27:27.692Z,2.55
2022-11-01T07:29:55.799Z,2.53
2022-11-01T07:32:23.882Z,2.47
2022-11-01T07:34:52.022Z,3.10
2022-11-01T07:37:20.191Z,2.42
2022-11-01T07:39:48.379Z,2.58
2022-11-01T07:42:16.539Z,2.88
2022-11-01T07:44:46.436Z,2.53
2022-11-01T07:49:44.854Z,2.65
2022-11-01T07:52:13.215Z,2.30
2022-11-01T07:54:41.332Z,3.03
2022-11-01T07:57:09.878Z,2.60
2022-11-01T07:59:38.172Z,2.90
2022-11-01T08:02:08.197Z,2.10
2022-11-01T08:04:36.778Z,2.42
2022-11-01T08:07:04.978Z,2.70
2022-11-01T08:09:33.093Z,2.38
2022-11-01T08:12:01.896Z,2.33
2022-11-01T08:14:30.043Z,2.22
2022-11-01T08:17:01.605Z,2.00
2022-11-01T08:19:31.178Z,2.13
2022-11-01T08:21:59.807Z,1.80
2022-11-01T08:24:28.049Z,1.98
2022-11-01T08:26:56.226Z,1.85
2022-11-01T08:29:24.537Z,1.58
2022-11-01T08:31:52.691Z,1.75
2022-11-01T08:34:20.928Z,1.88
2022-11-01T08:36:50.411Z,2.50
2022-11-01T08:39:18.540Z,2.00
2022-11-01T08:41:49.924Z,1.30
2022-11-01T08:44:19.345Z,1.58
2022-11-01T08:46:47.927Z,1.25
2022-11-01T08:49:16.149Z,1.17
2022-11-01T08:51:44.264Z,1.15
2022-11-01T08:54:13.760Z,0.98
2022-11-01T08:56:41.864Z,1.00
2022-11-01T08:59:10.304Z,0.70
2022-11-01T09:01:38.647Z,0.77
2022-11-01T09:04:07.535Z,0.90
2022-11-01T09:06:36.479Z,0.70
2022-11-01T09:09:05.006Z,0.80
2022-11-01T09:11:34.591Z,0.98
2022-11-01T09:14:02.681Z,1.00
2022-11-01T09:16:30.925Z,0.65
2022-11-01T09:19:01.721Z,0.80
2022-11-01T09:21:31.870Z,0.75
2022-11-01T09:24:00.841Z,0.50
2022-11-01T09:26:29.412Z,0.93
2022-11-01T09:29:00.078Z,1.00
2022-11-01T09:31:28.720Z,0.82
2022-11-01T09:33:57.737Z,0.90
2022-11-01T09:36:26.515Z,0.50
2022-11-01T09:38:55.271Z,0.80
2022-11-01T09:41:30.750Z,0.70
2022-11-01T09:44:02.640Z,0.70
2022-11-01T09:46:33.164Z,0.70
2022-11-01T09:49:03.689Z,1.10
2022-11-01T09:51:31.890Z,0.75
2022-11-01T09:54:04.488Z,0.70
2022-11-01T09:56:39.641Z,0.73
2022-11-01T09:59:22.803Z,0.70
2022-11-01T10:02:11.261Z,0.60
2022-11-01T10:05:10.285Z,0.80
2022-11-01T10:07:46.018Z,0.70
2022-11-01T10:10:30.007Z,0.70
2022-11-01T10:13:24.458Z,0.95
2022-11-01T10:16:03.488Z,0.90
2022-11-01T10:18:33.739Z,0.75
2022-11-01T10:21:05.456Z,0.70
2022-11-01T10:23:41.574Z,0.98
2022-11-01T10:26:13.074Z,0.68
2022-11-01T10:28:50.681Z,1.50
2022-11-01T10:31:23.731Z,1.33
2022-11-01T10:34:00.141Z,1.50
2022-11-01T10:36:33.280Z,1.20
2022-11-01T10:42:10.241Z,1.48
2022-11-01T10:44:42.522Z,0.90
2022-11-01T10:47:19.079Z,1.00
2022-11-01T10:50:07.798Z,1.13
2022-11-01T10:52:46.606Z,1.42
2022-11-01T10:55:20.299Z,1.67
2022-11-01T10:57:53.077Z,1.25
2022-11-01T11:00:22.451Z,1.30
2022-11-01T11:02:55.239Z,1.98
2022-11-01T11:05:25.261Z,1.58
2022-11-01T11:07:53.515Z,1.85
2022-11-01T11:10:26.737Z,1.88
2022-11-01T11:12:59.879Z,1.40
2022-11-01T11:15:39.145Z,1.60
2022-11-01T11:18:20.618Z,1.30
2022-11-01T11:20:53.432Z,1.42
2022-11-01T11:23:22.723Z,1.65
2022-11-01T11:25:51.753Z,2.00
2022-11-01T11:28:27.849Z,1.63
2022-11-01T11:30:56.237Z,1.45
2022-11-01T11:33:25.739Z,1.40
2022-11-01T11:38:42.012Z,1.80
2022-11-01T11:41:12.248Z,2.28
2022-11-01T11:43:42.578Z,1.95
2022-11-01T11:46:19.154Z,1.83
2022-11-01T11:48:51.045Z,2.22
2022-11-01T11:51:20.434Z,2.40
2022-11-01T11:56:36.133Z,1.80
2022-11-01T11:59:08.836Z,2.05
2022-11-01T12:01:37.421Z,1.85
2022-11-01T12:04:13.661Z,1.47
2022-11-01T12:06:45.724Z,2.10
2022-11-01T12:09:43.070Z,2.03
2022-11-01T12:12:18.872Z,2.10
2022-11-01T12:14:47.197Z,1.90
2022-11-01T12:17:31.422Z,2.15
2022-11-01T12:20:10.754Z,1.75
2022-11-01T12:25:15.287Z,1.98
2022-11-01T12:27:50.399Z,1.83
2022-11-01T12:30:21.454Z,2.08
2022-11-01T12:32:52.527Z,1.70
2022-11-01T12:35:30.388Z,1.83
2022-11-01T12:38:14.008Z,1.83
2022-11-01T12:40:46.565Z,1.30
2022-11-01T12:43:19.096Z,1.60
2022-11-01T12:45:51.993Z,1.77
2022-11-01T12:48:25.419Z,1.60
2022-11-01T12:50:59.818Z,1.63
2022-11-01T12:53:32.315Z,1.38
2022-11-01T12:56:00.830Z,1.83
2022-11-01T12:58:33.672Z,1.67
2022-11-01T13:01:16.740Z,1.60
2022-11-01T13:03:51.724Z,1.80
2022-11-01T13:06:44.778Z,1.60
2022-11-01T13:09:21.571Z,1.60
2022-11-01T13:11:56.847Z,1.65
2022-11-01T13:14:44.008Z,1.40
2022-11-01T13:17:20.295Z,2.03
2022-11-01T13:19:56.394Z,2.10
2022-11-01T13:22:34.694Z,1.33
2022-11-01T13:25:06.261Z,1.75
2022-11-01T13:27:42.507Z,1.40
2022-11-01T13:30:14.888Z,1.63
2022-11-01T13:32:50.867Z,2.33
2022-11-01T13:35:40.201Z,1.40
2022-11-01T13:40:48.637Z,1.70
2022-11-01T13:43:20.285Z,1.55
2022-11-01T13:46:08.803Z,1.45
2022-11-01T13:48:54.626Z,1.43
2022-11-01T13:51:39.783Z,1.95
2022-11-01T13:54:21.618Z,1.58
2022-11-01T13:56:58.419Z,1.55
2022-11-01T13:59:44.668Z,1.30
2022-11-01T14:02:42.669Z,0.98
2022-11-01T14:05:12.620Z,1.55
2022-11-01T14:08:21.686Z,1.80
2022-11-01T14:10:52.513Z,2.00
2022-11-01T14:13:32.961Z,1.50
2022-11-01T14:16:28.588Z,1.27
2022-11-01T14:19:19.090Z,1.10
2022-11-01T14:21:53.184Z,1.65
2022-11-01T14:24:35.274Z,1.00
2022-11-01T14:27:33.635Z,1.33
2022-11-01T14:30:02.369Z,1.02
2022-11-01T14:32:32.765Z,1.50
2022-11-01T14:35:06.716Z,1.10
2022-11-01T14:37:41.064Z,1.23
2022-11-01T14:40:28.193Z,1.23
2022-11-01T14:43:04.552Z,1.88
2022-11-01T14:45:35.829Z,1.02
2022-11-01T14:48:13.428Z,1.33
2022-11-01T14:50:51.520Z,1.13
2022-11-01T14:53:27.837Z,1.25
2022-11-01T14:56:08.273Z,1.10
2022-11-01T14:58:38.019Z,0.95
2022-11-01T15:01:08.642Z,1.65
2022-11-01T15:03:36.840Z,1.15
2022-11-01T15:06:15.751Z,1.33
2022-11-01T15:08:44.143Z,0.93
2022-11-01T15:11:12.471Z,1.20
2022-11-01T15:13:45.003Z,1.45
2022-11-01T15:16:17.088Z,1.20
2022-11-01T15:18:50.010Z,1.50
2022-11-01T15:21:23.082Z,1.48
2022-11-01T15:23:55.946Z,1.10
2022-11-01T15:26:28.146Z,1.02
2022-11-01T15:29:00.499Z,1.15
2022-11-01T15:31:29.393Z,1.20
2022-11-01T15:33:59.112Z,0.80
2022-11-01T15:39:02.780Z,1.17
2022-11-01T15:41:32.854Z,1.13
2022-11-01T15:44:05.193Z,1.30
2022-11-01T15:46:35.324Z,0.88
2022-11-01T15:49:09.484Z,1.20
2022-11-01T15:51:43.260Z,1.17
2022-11-01T15:54:21.823Z,1.00
2022-11-01T15:56:54.186Z,1.17
2022-11-01T15:59:29.251Z,1.17
2022-11-01T16:02:01.097Z,0.95
2022-11-01T16:04:37.425Z,1.23
2022-11-01T16:07:08.361Z,0.98
2022-11-01T16:09:41.223Z,0.80
2022-11-01T16:12:17.731Z,0.70
2022-11-01T16:14:53.121Z,1.13
2022-11-01T16:17:25.838Z,1.33
2022-11-01T16:19:54.876Z,0.90
2022-11-01T16:22:34.858Z,0.95
2022-11-01T16:25:06.409Z,1.00
2022-11-01T16:27:35.891Z,0.80
2022-11-01T16:30:10.459Z,0.95
2022-11-01T16:32:38.826Z,0.98
2022-11-01T16:35:32.037Z,1.05
2022-11-01T16:38:00.517Z,1.00
2022-11-01T16:40:31.713Z,1.50
2022-11-01T16:43:00.849Z,0.93
2022-11-01T16:45:30.807Z,1.10
2022-11-01T16:47:59.198Z,1.38
2022-11-01T16:50:27.367Z,1.10
2022-11-01T16:52:56.473Z,0.93
2022-11-01T16:55:28.505Z,1.00
2022-11-01T16:57:58.549Z,1.20
2022-11-01T17:00:26.674Z,1.07
2022-11-01T17:02:57.098Z,1.10
2022-11-01T17:05:25.235Z,1.08
2022-11-01T17:07:53.366Z,1.20
2022-11-01T17:10:25.502Z,1.02
2022-11-01T17:12:57.588Z,0.90
2022-11-01T17:15:27.856Z,1.30
2022-11-01T17:17:57.427Z,0.90
2022-11-01T17:20:28.661Z,0.70
2022-11-01T17:22:58.502Z,0.63
2022-11-01T17:25:29.534Z,0.90
2022-11-01T17:27:57.889Z,0.90
2022-11-01T17:30:26.422Z,0.98
2022-11-01T17:32:55.939Z,0.63
2022-11-01T17:35:26.663Z,0.90
2022-11-01T17:37:55.988Z,1.05
2022-11-01T17:40:26.229Z,0.90
2022-11-01T17:42:55.139Z,1.10
2022-11-01T17:45:23.633Z,1.02
2022-11-01T17:47:54.709Z,1.15
2022-11-01T17:50:24.390Z,0.90
2022-11-01T17:52:52.908Z,1.35
2022-11-01T17:55:21.204Z,1.17
2022-11-01T17:57:49.631Z,1.13
2022-11-01T18:00:18.501Z,1.02
2022-11-01T18:02:46.626Z,1.15
2022-11-01T18:05:14.931Z,1.25
2022-11-01T18:07:47.615Z,1.13
2022-11-01T18:10:19.066Z,1.13
2022-11-01T18:12:59.577Z,0.70
2022-11-01T18:15:35.559Z,0.85
2022-11-01T18:18:20.287Z,1.15
2022-11-01T18:20:54.916Z,1.00
2022-11-01T18:23:25.948Z,1.08
2022-11-01T18:25:54.296Z,1.23
2022-11-01T18:28:25.343Z,0.88
2022-11-01T18:30:57.457Z,1.10
2022-11-01T18:33:27.596Z,2.22
2022-11-01T18:36:00.660Z,2.08
2022-11-01T18:38:37.842Z,1.13
2022-11-01T18:41:12.026Z,1.60
2022-11-01T18:43:41.207Z,1.50
2022-11-01T18:46:26.228Z,1.23
2022-11-01T18:48:59.949Z,1.38
2022-11-01T18:51:31.093Z,1.80
2022-11-01T18:54:17.015Z,1.50
2022-11-01T18:56:49.532Z,1.48
2022-11-01T18:59:21.404Z,1.17
2022-11-01T19:01:52.735Z,1.58
2022-11-01T19:04:24.350Z,1.00
2022-11-01T19:06:55.778Z,1.33
2022-11-01T19:09:27.805Z,1.48
2022-11-01T19:11:59.209Z,1.40
2022-11-01T19:14:28.449Z,1.60
2022-11-01T19:16:57.545Z,1.23
2022-11-01T19:19:26.044Z,1.93
2022-11-01T19:21:57.672Z,1.38
2022-11-01T19:24:33.852Z,1.50
2022-11-01T19:27:03.409Z,1.55
2022-11-01T19:29:33.951Z,0.98
2022-11-01T19:32:04.415Z,1.55
2022-11-01T19:34:36.340Z,1.58
2022-11-01T19:37:08.442Z,1.50
2022-11-01T19:39:41.636Z,1.55
2022-11-01T19:42:26.546Z,1.25
2022-11-01T19:44:59.509Z,1.10
2022-11-01T19:47:38.973Z,1.25
2022-11-01T19:50:21.301Z,1.05
2022-11-01T19:52:53.362Z,1.45
2022-11-01T19:55:43.824Z,1.38
2022-11-01T19:58:27.797Z,1.38
2022-11-01T20:01:34.641Z,1.40
2022-11-01T20:04:05.838Z,1.02
2022-11-01T20:06:37.299Z,1.23
2022-11-01T20:09:07.615Z,1.27
2022-11-01T20:11:37.101Z,1.20
2022-11-01T20:14:06.021Z,1.27
2022-11-01T20:16:34.242Z,1.15
2022-11-01T20:19:02.340Z,1.00
2022-11-01T20:21:30.562Z,1.20
2022-11-01T20:23:59.419Z,1.45
2022-11-01T20:26:27.620Z,1.40
2022-11-01T20:28:57.134Z,1.08
2022-11-01T20:31:25.822Z,1.20
2022-11-01T20:33:54.120Z,1.30
2022-11-01T20:36:22.539Z,1.25
2022-11-01T20:38:50.613Z,1.15
2022-11-01T20:41:19.151Z,1.25
2022-11-01T20:43:47.253Z,1.33
2022-11-01T20:46:16.732Z,0.82
2022-11-01T20:48:46.268Z,1.20
2022-11-01T20:51:14.535Z,1.23
2022-11-01T20:53:42.817Z,1.30
2022-11-01T20:56:10.923Z,1.23
2022-11-01T20:58:40.896Z,0.80
2022-11-01T21:03:46.114Z,0.82
2022-11-01T21:06:16.794Z,1.20
2022-11-01T21:08:47.369Z,0.88
2022-11-01T21:11:22.294Z,0.82
2022-11-01T21:13:51.850Z,1.00
2022-11-01T21:16:29.070Z,0.98
2022-11-01T21:19:02.885Z,0.90
2022-11-01T21:21:46.412Z,0.90
2022-11-01T21:24:35.754Z,0.73
2022-11-01T21:27:26.884Z,0.82
2022-11-01T21:30:01.470Z,0.85
2022-11-01T21:32:34.931Z,1.00
2022-11-01T21:35:34.439Z,0.88
2022-11-01T21:38:03.273Z,1.00
2022-11-01T21:40:31.622Z,0.83
2022-11-01T21:43:00.449Z,1.27
2022-11-01T21:45:31.094Z,1.45
2022-11-01T21:48:03.745Z,1.10
2022-11-01T21:50:32.083Z,1.15
2022-11-01T21:53:00.500Z,1.50
2022-11-01T21:55:28.839Z,1.38
2022-11-01T21:57:57.163Z,1.55
2022-11-01T22:00:25.527Z,1.50
2022-11-01T22:02:53.611Z,1.15
2022-11-01T22:05:23.159Z,1.40
2022-11-01T22:07:51.361Z,1.60
2022-11-01T22:10:19.524Z,1.20
2022-11-01T22:12:47.708Z,1.20
2022-11-01T22:15:15.956Z,1.42
2022-11-01T22:17:44.109Z,1.80
2022-11-01T22:20:12.675Z,1.30
2022-11-01T22:22:42.213Z,1.27
2022-11-01T22:25:11.216Z,1.00
2022-11-01T22:27:39.580Z,1.20
2022-11-01T22:30:08.939Z,1.67
2022-11-01T22:32:37.583Z,1.08
2022-11-01T22:35:06.323Z,0.80
2022-11-01T22:37:36.564Z,1.35
2022-11-01T22:40:12.441Z,1.30
2022-11-01T22:42:41.325Z,1.17
2022-11-01T22:45:15.689Z,1.17
2022-11-01T22:47:45.935Z,1.02
2022-11-01T22:50:18.651Z,1.30
2022-11-01T22:52:49.184Z,1.13
2022-11-01T22:55:24.574Z,0.80
2022-11-01T22:57:56.118Z,0.75
2022-11-01T23:00:32.364Z,1.20
2022-11-01T23:03:03.799Z,1.15
2022-11-01T23:05:32.431Z,1.10
2022-11-01T23:08:11.289Z,1.25
2022-11-01T23:10:40.755Z,0.93
2022-11-01T23:13:35.426Z,1.60
2022-11-01T23:16:12.544Z,1.17
2022-11-01T23:18:42.895Z,1.48
2022-11-01T23:21:11.536Z,1.77
2022-11-01T23:23:43.569Z,1.83
2022-11-01T23:26:13.821Z,1.63
2022-11-01T23:28:42.595Z,1.20
2022-11-01T23:31:10.861Z,1.35
2022-11-01T23:33:41.457Z,1.58
2022-11-01T23:36:16.190Z,1.10
2022-11-01T23:38:48.951Z,1.52
2022-11-01T23:41:23.679Z,1.20
2022-11-01T23:43:53.071Z,1.60
2022-11-01T23:46:21.566Z,1.40
2022-11-01T23:48:50.285Z,1.08
2022-11-01T23:51:21.751Z,1.45
2022-11-01T23:53:53.217Z,1.50
2022-11-01T23:56:23.684Z,1.40
2022-11-01T23:58:57.187Z,1.27
